Time;durP1;ratioP1;P1;durP2;ratioP2;P2;SDS_P1;SDS_P2;PMS_P1;PMS_P2;Temp;Humidity;BMP_temperature;BMP_pressure;BME280_temperature;BME280_humidity;BME280_pressure;Samples;Min_cycle;Max_cycle;Signal;HPM_P1;HPM_P2
2023/09/25 00:00:02;;;;;;;19.70;13.80;;;;;;;16.53;74.98;101377.11;108118;1253;72767;-67
2023/09/25 00:02:33;;;;;;;20.20;13.60;;;;;;;16.57;75.31;101380.13;108074;1252;71991;-68
2023/09/25 00:05:00;;;;;;;16.60;13.20;;;;;;;16.61;75.62;101377.99;108239;1252;60435;-67
2023/09/25 00:07:28;;;;;;;16.90;12.90;;;;;;;16.63;75.62;101378.15;108200;1252;60312;-67
2023/09/25 00:09:56;;;;;;;19.40;13.70;;;;;;;16.64;75.63;101381.43;108056;1253;73843;-66
2023/09/25 00:12:24;;;;;;;17.40;13.10;;;;;;;16.64;75.81;101382.73;107995;1253;72704;-67
2023/09/25 00:14:51;;;;;;;19.90;13.50;;;;;;;16.66;75.87;101390.92;108115;1253;72715;-68
2023/09/25 00:17:19;;;;;;;15.10;12.20;;;;;;;16.67;75.92;101381.41;108191;1253;60399;-67
2023/09/25 00:19:47;;;;;;;17.50;12.30;;;;;;;16.65;75.81;101380.08;108172;1253;60299;-68
2023/09/25 00:22:14;;;;;;;16.80;12.70;;;;;;;16.64;75.75;101380.67;108019;1258;72907;-68
2023/09/25 00:24:42;;;;;;;17.00;11.90;;;;;;;16.61;75.57;101381.17;108050;1253;71583;-68
2023/09/25 00:27:10;;;;;;;16.20;12.80;;;;;;;16.57;75.44;101376.88;108196;1253;72977;-67
2023/09/25 00:29:38;;;;;;;18.50;12.70;;;;;;;16.51;75.35;101381.98;108020;1254;60684;-66
2023/09/25 00:32:06;;;;;;;18.50;13.30;;;;;;;16.43;75.34;101379.86;108000;1253;60401;-66
2023/09/25 00:34:34;;;;;;;18.50;13.50;;;;;;;16.32;75.32;101379.52;108144;1253;74327;-66
2023/09/25 00:37:01;;;;;;;22.90;15.60;;;;;;;16.25;75.67;101383.10;108206;1253;73326;-67
2023/09/25 00:39:29;;;;;;;20.10;15.10;;;;;;;16.24;75.75;101384.88;108070;1253;72628;-68
2023/09/25 00:41:59;;;;;;;17.70;15.00;;;;;;;16.25;76.14;101384.07;108056;1258;61050;-66
2023/09/25 00:44:27;;;;;;;17.80;13.90;;;;;;;16.28;76.26;101381.80;108254;1252;59301;-67
2023/09/25 00:46:54;;;;;;;18.60;13.30;;;;;;;16.30;76.24;101389.01;108273;1253;73831;-67
2023/09/25 00:49:22;;;;;;;20.00;14.50;;;;;;;16.31;76.10;101387.94;108155;1253;73852;-67
2023/09/25 00:51:51;;;;;;;19.90;13.10;;;;;;;16.31;75.96;101390.80;108121;1254;72430;-66
2023/09/25 00:54:19;;;;;;;19.00;13.30;;;;;;;16.35;75.58;101392.29;107967;1254;60385;-66
2023/09/25 00:57:05;;;;;;;18.70;13.70;;;;;;;16.25;75.50;101397.49;107893;1258;60334;-66
2023/09/25 00:59:33;;;;;;;17.20;13.70;;;;;;;16.27;75.51;101400.62;107984;1253;73967;-66
2023/09/25 01:02:01;;;;;;;18.80;13.60;;;;;;;16.18;75.70;101398.11;108039;1253;71329;-67
2023/09/25 01:04:30;;;;;;;18.30;13.00;;;;;;;16.15;75.64;101402.20;107970;1253;70421;-67
2023/09/25 01:06:58;;;;;;;17.20;13.10;;;;;;;16.11;75.52;101402.34;108162;1253;60791;-68
2023/09/25 01:09:26;;;;;;;16.10;13.20;;;;;;;16.05;75.47;101401.00;108119;1252;60861;-68
2023/09/25 01:11:54;;;;;;;16.00;13.40;;;;;;;15.96;75.46;101399.13;108139;1253;72660;-68
2023/09/25 01:14:23;;;;;;;15.20;12.10;;;;;;;15.83;75.49;101394.67;108104;1258;71466;-70
2023/09/25 01:16:50;;;;;;;15.70;13.20;;;;;;;15.70;75.45;101397.64;108080;1253;70419;-65
2023/09/25 01:19:18;;;;;;;13.70;11.50;;;;;;;15.58;75.66;101407.27;108061;1255;60451;-68
2023/09/25 01:21:46;;;;;;;19.90;15.40;;;;;;;15.55;75.91;101411.83;108189;1258;61256;-67
2023/09/25 01:24:14;;;;;;;18.90;14.50;;;;;;;15.57;76.25;101410.70;108071;1253;72872;-67
2023/09/25 01:26:42;;;;;;;15.90;14.00;;;;;;;15.60;76.52;101411.52;108062;1253;72715;-67
2023/09/25 01:29:09;;;;;;;19.80;14.30;;;;;;;15.64;76.91;101412.27;108103;1253;73297;-67
2023/09/25 01:31:37;;;;;;;19.10;14.90;;;;;;;15.68;77.12;101413.00;108039;1253;60456;-68
2023/09/25 01:34:05;;;;;;;19.60;14.20;;;;;;;15.73;77.29;101413.91;108023;1253;60472;-68
2023/09/25 01:36:33;;;;;;;22.60;14.80;;;;;;;15.75;77.56;101417.84;108051;1253;73867;-67
2023/09/25 01:39:01;;;;;;;19.50;14.40;;;;;;;15.74;77.74;101416.39;108097;1253;72462;-67
2023/09/25 01:41:29;;;;;;;19.30;14.40;;;;;;;15.75;77.93;101414.83;108093;1252;73569;-67
2023/09/25 01:43:57;;;;;;;19.90;13.90;;;;;;;15.77;78.06;101416.29;108029;1254;60673;-69
2023/09/25 01:46:24;;;;;;;19.60;13.90;;;;;;;15.80;78.11;101418.17;108008;1253;60219;-68
2023/09/25 01:48:52;;;;;;;20.80;14.70;;;;;;;15.84;78.05;101422.20;108086;1257;73888;-67
2023/09/25 01:51:20;;;;;;;19.40;14.50;;;;;;;15.85;77.91;101417.19;108186;1253;72757;-68
2023/09/25 01:53:50;;;;;;;17.90;14.00;;;;;;;15.86;77.95;101414.70;108138;1253;73833;-68
2023/09/25 01:56:18;;;;;;;18.40;14.20;;;;;;;15.89;78.05;101416.65;108110;1253;60500;-67
2023/09/25 01:58:46;;;;;;;20.30;14.60;;;;;;;15.96;77.90;101418.20;108079;1253;60425;-68
2023/09/25 02:01:14;;;;;;;20.90;13.90;;;;;;;15.97;77.89;101422.84;108051;1253;73935;-66
2023/09/25 02:03:42;;;;;;;18.20;13.80;;;;;;;16.01;77.85;101416.14;108029;1253;74234;-66
2023/09/25 02:06:10;;;;;;;20.90;14.30;;;;;;;16.09;77.57;101412.95;108177;1254;72862;-68
2023/09/25 02:08:40;;;;;;;22.40;14.20;;;;;;;16.15;77.37;101418.98;108021;1256;61481;-67
2023/09/25 02:11:09;;;;;;;16.60;12.90;;;;;;;16.18;77.18;101420.16;108046;1253;60290;-67
2023/09/25 02:13:36;;;;;;;18.50;14.10;;;;;;;16.20;77.10;101420.09;108109;1257;76165;-67
2023/09/25 02:16:04;;;;;;;18.60;13.00;;;;;;;16.18;77.09;101420.80;108055;1253;72773;-68
2023/09/25 02:18:32;;;;;;;19.20;14.10;;;;;;;16.14;77.00;101423.34;108195;1255;72439;-68
2023/09/25 02:20:59;;;;;;;19.60;13.50;;;;;;;16.14;76.98;101426.36;108028;1253;61816;-68
2023/09/25 02:23:27;;;;;;;19.70;13.80;;;;;;;16.16;76.78;101429.16;108083;1253;60325;-67
2023/09/25 02:25:55;;;;;;;18.80;13.90;;;;;;;16.12;76.62;101437.74;107935;1253;72604;-66
2023/09/25 02:28:23;;;;;;;17.30;12.90;;;;;;;16.08;76.53;101436.78;108064;1254;71435;-68
2023/09/25 02:30:51;;;;;;;18.40;13.10;;;;;;;16.04;76.26;101438.13;108132;1253;71987;-68
2023/09/25 02:33:19;;;;;;;21.30;13.00;;;;;;;16.01;75.82;101434.36;108043;1258;60711;-67
2023/09/25 02:35:47;;;;;;;20.30;14.00;;;;;;;15.89;75.72;101440.04;107980;1253;62013;-67
2023/09/25 02:38:15;;;;;;;17.20;13.00;;;;;;;15.83;75.65;101441.50;108121;1253;73128;-67
2023/09/25 02:40:42;;;;;;;18.00;13.80;;;;;;;15.78;75.60;101438.80;108057;1253;71156;-67
2023/09/25 02:43:10;;;;;;;18.90;13.40;;;;;;;15.76;75.55;101437.94;107909;1253;71462;-66
2023/09/25 02:45:38;;;;;;;18.20;13.60;;;;;;;15.69;75.55;101440.14;108018;1253;61680;-66
2023/09/25 02:48:06;;;;;;;17.80;12.80;;;;;;;15.61;75.72;101444.48;108122;1253;60287;-68
2023/09/25 02:50:34;;;;;;;18.90;12.70;;;;;;;15.58;75.70;101442.59;108013;1258;74774;-66
2023/09/25 02:53:01;;;;;;;14.90;12.30;;;;;;;15.60;75.65;101446.26;108066;1253;72988;-67
2023/09/25 02:55:29;;;;;;;19.50;12.70;;;;;;;15.67;75.40;101443.39;108177;1254;71396;-67
2023/09/25 02:57:56;;;;;;;19.40;13.70;;;;;;;15.69;75.15;101441.83;108061;1259;61654;-68
2023/09/25 03:00:24;;;;;;;18.40;13.70;;;;;;;15.70;74.99;101442.64;108192;1253;59018;-67
2023/09/25 03:02:52;;;;;;;17.30;12.80;;;;;;;15.70;74.99;101439.62;108139;1253;72698;-67
2023/09/25 03:05:20;;;;;;;15.80;12.50;;;;;;;15.70;74.83;101446.23;108028;1253;72721;-68
2023/09/25 03:07:48;;;;;;;17.10;13.30;;;;;;;15.68;74.66;101444.56;107972;1253;75201;-68
2023/09/25 03:10:16;;;;;;;18.40;12.80;;;;;;;15.67;74.60;101445.98;108046;1255;60411;-68
2023/09/25 03:12:43;;;;;;;17.10;12.70;;;;;;;15.63;74.44;101444.54;108052;1254;60808;-66
2023/09/25 03:15:11;;;;;;;18.20;12.70;;;;;;;15.50;74.64;101443.17;108122;1253;72663;-66
2023/09/25 03:17:39;;;;;;;17.40;13.10;;;;;;;15.47;74.83;101445.48;108146;1258;73156;-67
2023/09/25 03:20:17;;;;;;;18.40;12.60;;;;;;;15.46;74.81;101445.16;108064;1253;72492;-67
2023/09/25 03:22:45;;;;;;;15.70;12.20;;;;;;;15.43;74.73;101448.17;108037;1254;61698;-67
2023/09/25 03:25:17;;;;;;;16.90;13.10;;;;;;;15.36;74.76;101448.77;108007;1253;60521;-68
2023/09/25 03:27:44;;;;;;;19.90;13.10;;;;;;;15.34;74.70;101448.54;108002;1259;73940;-67
2023/09/25 03:30:13;;;;;;;22.50;13.60;;;;;;;15.37;74.56;101447.54;108308;1253;72042;-67
2023/09/25 03:32:43;;;;;;;17.40;12.40;;;;;;;15.32;74.63;101446.61;108117;1253;72895;-67
2023/09/25 03:35:11;;;;;;;18.30;12.90;;;;;;;15.25;74.67;101452.34;108144;1255;60706;-67
2023/09/25 03:37:38;;;;;;;17.20;12.50;;;;;;;15.26;74.70;101449.22;109047;1253;60196;-66
2023/09/25 03:40:07;;;;;;;16.60;13.00;;;;;;;15.27;74.63;101450.95;108461;1257;74012;-67
2023/09/25 03:42:36;;;;;;;18.20;12.80;;;;;;;15.24;74.83;101452.73;108113;1258;71429;-68
2023/09/25 03:45:04;;;;;;;18.60;12.90;;;;;;;15.22;74.87;101455.46;108104;1254;72698;-68
2023/09/25 03:47:34;;;;;;;18.10;13.30;;;;;;;15.13;74.95;101452.80;108027;1259;60387;-68
2023/09/25 03:50:02;;;;;;;17.10;13.60;;;;;;;15.06;75.42;101461.77;108136;1254;62261;-68
2023/09/25 03:52:31;;;;;;;17.90;13.30;;;;;;;15.08;75.73;101459.41;108072;1253;73790;-68
2023/09/25 03:54:58;;;;;;;18.10;13.10;;;;;;;15.20;75.67;101457.84;108170;1253;72871;-68
2023/09/25 03:57:26;;;;;;;18.50;13.00;;;;;;;15.27;75.53;101464.04;108042;1258;71483;-67
2023/09/25 03:59:54;;;;;;;20.40;13.40;;;;;;;15.31;75.46;101466.73;108137;1252;61701;-67
2023/09/25 04:02:22;;;;;;;16.60;12.70;;;;;;;15.35;75.44;101467.55;108172;1254;60434;-67
2023/09/25 04:04:49;;;;;;;18.90;14.10;;;;;;;15.38;75.39;101465.02;108127;1259;71682;-67
2023/09/25 04:07:17;;;;;;;18.00;12.80;;;;;;;15.38;75.38;101462.81;108185;1256;71447;-67
2023/09/25 04:09:45;;;;;;;15.10;12.90;;;;;;;15.43;75.23;101463.31;108153;1255;71713;-67
2023/09/25 04:12:14;;;;;;;18.30;13.20;;;;;;;15.48;75.24;101468.80;108164;1254;61725;-67
2023/09/25 04:14:42;;;;;;;18.20;13.00;;;;;;;15.61;74.94;101470.98;108121;1253;60467;-67
2023/09/25 04:17:10;;;;;;;16.00;12.20;;;;;;;15.68;74.71;101475.42;108091;1258;73823;-67
2023/09/25 04:19:38;;;;;;;18.70;13.20;;;;;;;15.71;74.62;101472.36;108135;1255;72679;-67
2023/09/25 04:22:06;;;;;;;16.10;12.30;;;;;;;15.75;74.60;101477.64;108196;1257;73327;-68
2023/09/25 04:24:37;;;;;;;18.30;13.10;;;;;;;15.77;74.59;101475.06;108122;1258;61800;-67
2023/09/25 04:27:05;;;;;;;16.40;12.40;;;;;;;15.80;74.56;101475.59;108100;1254;60446;-67
2023/09/25 04:29:33;;;;;;;15.50;12.70;;;;;;;15.83;74.74;101475.16;108136;1257;76134;-67
2023/09/25 04:32:03;;;;;;;15.90;12.80;;;;;;;15.90;74.66;101482.77;108135;1254;72714;-67
2023/09/25 04:34:31;;;;;;;15.80;13.10;;;;;;;15.99;74.64;101488.85;108112;1259;72725;-68
2023/09/25 04:36:58;;;;;;;15.70;13.00;;;;;;;16.00;74.45;101491.76;108159;1254;62115;-67
2023/09/25 04:39:26;;;;;;;18.90;13.80;;;;;;;16.05;74.57;101491.86;108069;1254;60406;-68
2023/09/25 04:41:54;;;;;;;18.20;13.30;;;;;;;16.13;74.63;101495.58;108089;1254;73863;-68
2023/09/25 04:44:22;;;;;;;17.50;13.60;;;;;;;16.17;74.77;101500.90;108070;1254;72772;-68
2023/09/25 04:46:49;;;;;;;19.00;13.60;;;;;;;16.17;75.09;101505.82;108095;1255;71708;-67
2023/09/25 04:49:18;;;;;;;17.40;13.40;;;;;;;16.25;75.29;101510.98;108071;1253;60485;-68
2023/09/25 04:51:46;;;;;;;16.10;13.00;;;;;;;16.36;75.47;101519.27;108049;1254;62133;-67
2023/09/25 04:54:16;;;;;;;22.00;13.90;;;;;;;16.47;75.53;101515.31;108024;1254;73846;-68
2023/09/25 04:56:46;;;;;;;20.30;13.90;;;;;;;16.60;75.58;101518.95;108198;1257;72535;-67
2023/09/25 04:59:14;;;;;;;14.30;12.80;;;;;;;16.73;75.73;101515.96;108045;1254;72402;-68
2023/09/25 05:01:41;;;;;;;19.90;13.70;;;;;;;16.83;75.52;101522.05;108090;1252;64142;-67
2023/09/25 05:04:09;;;;;;;20.80;14.00;;;;;;;16.92;75.45;101526.98;108027;1254;60401;-68
2023/09/25 05:06:37;;;;;;;22.50;14.40;;;;;;;16.95;75.73;101531.98;108047;1254;73921;-68
2023/09/25 05:09:05;;;;;;;19.90;13.80;;;;;;;17.05;75.81;101530.98;108007;1255;72753;-68
2023/09/25 05:11:32;;;;;;;19.20;13.80;;;;;;;17.16;75.85;101535.56;108193;1257;71801;-68
2023/09/25 05:14:00;;;;;;;18.70;13.40;;;;;;;17.35;75.61;101529.64;108040;1254;61789;-69
2023/09/25 05:16:28;;;;;;;19.20;14.80;;;;;;;17.45;75.36;101530.40;107956;1253;60544;-68
2023/09/25 05:18:57;;;;;;;22.10;14.80;;;;;;;17.48;75.50;101540.05;107953;1260;73842;-69
2023/09/25 05:21:25;;;;;;;16.40;13.40;;;;;;;17.63;75.40;101540.83;107921;1258;72709;-68
2023/09/25 05:23:53;;;;;;;18.30;13.90;;;;;;;17.80;75.15;101545.38;108081;1254;71171;-68
2023/09/25 05:26:21;;;;;;;24.10;15.10;;;;;;;17.92;74.82;101543.73;108113;1254;60444;-67
2023/09/25 05:28:49;;;;;;;18.70;14.20;;;;;;;18.07;74.24;101540.74;108085;1253;60565;-68
2023/09/25 05:31:17;;;;;;;19.40;13.70;;;;;;;18.18;73.55;101543.35;108106;1254;73929;-68
2023/09/25 05:33:44;;;;;;;21.90;14.40;;;;;;;18.28;73.08;101539.82;108134;1257;71505;-68
2023/09/25 05:36:12;;;;;;;20.50;13.70;;;;;;;18.37;72.29;101534.63;108075;1254;72981;-68
2023/09/25 05:38:40;;;;;;;20.20;12.90;;;;;;;18.46;71.57;101532.98;108080;1253;61678;-66
2023/09/25 05:41:07;;;;;;;19.80;13.60;;;;;;;18.55;70.25;101530.98;108161;1254;60326;-67
2023/09/25 05:43:35;;;;;;;19.00;13.50;;;;;;;18.61;69.36;101529.63;108131;1258;75898;-67
2023/09/25 05:46:03;;;;;;;16.90;13.20;;;;;;;18.65;68.88;101531.38;108149;1252;71487;-68
2023/09/25 05:48:30;;;;;;;17.60;12.70;;;;;;;18.74;68.24;101531.07;108167;1254;72567;-68
2023/09/25 05:50:59;;;;;;;18.20;12.20;;;;;;;18.85;67.70;101531.93;108236;1254;63302;-68
2023/09/25 05:53:27;;;;;;;17.40;11.80;;;;;;;18.97;66.78;101531.74;108245;1257;60284;-67
2023/09/25 05:55:55;;;;;;;18.10;12.30;;;;;;;19.07;65.92;101533.73;107994;1251;73610;-67
2023/09/25 05:58:23;;;;;;;19.30;13.00;;;;;;;19.15;64.89;101538.33;108106;1254;71794;-68
2023/09/25 06:00:51;;;;;;;20.50;12.00;;;;;;;19.24;64.02;101541.90;108088;1254;72889;-67
2023/09/25 06:03:19;;;;;;;16.30;11.80;;;;;;;19.33;63.21;101543.95;108069;1253;59628;-67
2023/09/25 06:05:47;;;;;;;18.00;12.00;;;;;;;19.38;62.85;101548.17;108170;1254;59481;-68
2023/09/25 06:08:15;;;;;;;16.00;11.30;;;;;;;19.42;62.61;101552.97;108265;1254;73165;-69
2023/09/25 06:10:44;;;;;;;16.90;11.40;;;;;;;19.47;62.28;101551.83;108183;1253;71445;-68
2023/09/25 06:13:11;;;;;;;19.80;11.40;;;;;;;19.55;61.93;101553.50;108029;1260;72632;-68
2023/09/25 06:15:42;;;;;;;16.60;11.90;;;;;;;19.65;61.81;101548.30;108167;1258;60303;-68
2023/09/25 06:18:10;;;;;;;18.10;11.70;;;;;;;19.75;61.49;101548.38;108238;1254;60450;-68
2023/09/25 06:20:43;;;;;;;18.00;11.60;;;;;;;19.85;61.10;101553.79;107966;1254;72626;-68
2023/09/25 06:23:11;;;;;;;19.00;10.50;;;;;;;19.98;60.93;101556.09;108213;1254;73199;-67
2023/09/25 06:25:39;;;;;;;18.50;11.30;;;;;;;20.12;60.65;101558.25;108032;1251;74557;-68
2023/09/25 06:28:08;;;;;;;15.40;10.40;;;;;;;20.22;60.31;101557.63;108148;1254;61046;-67
2023/09/25 06:30:36;;;;;;;16.60;10.70;;;;;;;20.32;60.05;101551.83;108166;1254;59001;-67
2023/09/25 06:33:06;;;;;;;15.40;11.00;;;;;;;20.44;59.86;101551.06;108158;1258;72659;-67
2023/09/25 06:35:34;;;;;;;17.80;10.80;;;;;;;20.57;59.83;101558.84;109302;1254;71421;-67
2023/09/25 06:38:03;;;;;;;18.20;10.60;;;;;;;20.70;59.58;101552.41;109341;1253;71525;-68
2023/09/25 06:40:30;;;;;;;13.90;9.70;;;;;;;20.84;59.38;101553.13;109394;1253;60687;-67
2023/09/25 06:42:58;;;;;;;15.10;10.90;;;;;;;20.96;58.51;101550.58;109450;1254;60071;-67
2023/09/25 06:45:25;;;;;;;18.20;10.70;;;;;;;21.08;58.16;101552.02;109369;1252;73933;-68
2023/09/25 06:47:53;;;;;;;16.00;10.00;;;;;;;21.23;57.92;101557.74;109217;1252;71755;-68
2023/09/25 06:50:20;;;;;;;17.50;9.80;;;;;;;21.39;57.78;101558.35;109332;1252;74860;-68
2023/09/25 06:52:48;;;;;;;17.70;10.30;;;;;;;21.55;57.68;101562.41;109426;1253;58385;-68
2023/09/25 06:55:16;;;;;;;14.20;9.70;;;;;;;21.69;57.17;101559.91;109345;1254;62612;-68
2023/09/25 06:57:44;;;;;;;17.70;10.00;;;;;;;21.83;56.63;101556.66;109432;1254;73004;-68
2023/09/25 07:00:13;;;;;;;19.80;11.20;;;;;;;21.96;56.15;101555.17;109346;1253;72738;-68
2023/09/25 07:02:42;;;;;;;14.60;9.80;;;;;;;22.09;55.15;101555.75;109362;1254;74772;-68
2023/09/25 07:05:10;;;;;;;17.90;9.50;;;;;;;22.20;54.91;101558.64;109196;1253;62318;-69
2023/09/25 07:07:38;;;;;;;16.10;9.80;;;;;;;22.31;54.51;101564.52;109344;1253;60018;-68
2023/09/25 07:10:09;;;;;;;17.60;9.90;;;;;;;22.43;54.12;101564.59;109358;1254;73232;-68
2023/09/25 07:12:37;;;;;;;20.20;11.30;;;;;;;22.56;53.43;101564.91;109384;1254;72349;-67
2023/09/25 07:15:05;;;;;;;18.20;10.90;;;;;;;22.75;52.13;101565.15;109340;1254;72864;-67
2023/09/25 07:17:34;;;;;;;17.80;10.40;;;;;;;22.85;50.76;101567.67;109274;1252;58861;-67
2023/09/25 07:20:02;;;;;;;13.00;9.30;;;;;;;22.99;50.31;101570.68;109320;1253;60025;-67
2023/09/25 07:22:31;;;;;;;18.60;9.30;;;;;;;23.02;50.26;101572.55;109259;1254;72933;-67
2023/09/25 07:24:59;;;;;;;16.00;8.90;;;;;;;23.13;50.22;101574.98;109431;1252;72715;-67
2023/09/25 07:27:28;;;;;;;18.80;8.20;;;;;;;23.26;50.01;101573.63;109316;1254;71119;-67
2023/09/25 07:33:12;;;;;;;11.90;7.80;;;;;;;23.53;49.49;101582.41;105088;1292;600211;-67
2023/09/25 07:35:42;;;;;;;15.60;8.70;;;;;;;23.66;48.76;101584.59;107548;1267;60323;-68
2023/09/25 07:38:09;;;;;;;18.50;8.80;;;;;;;23.77;48.24;101588.42;108219;1254;60321;-68
2023/09/25 07:40:36;;;;;;;14.40;9.20;;;;;;;23.88;47.73;101591.56;108211;1253;71012;-67
2023/09/25 07:43:03;;;;;;;16.30;9.50;;;;;;;23.95;47.09;101593.77;108221;1253;72516;-71
2023/09/25 07:45:32;;;;;;;16.40;9.80;;;;;;;23.99;46.91;101596.54;108299;1251;238098;-67
2023/09/25 07:47:59;;;;;;;17.00;9.40;;;;;;;24.08;47.01;101599.73;108461;1251;60441;-67
2023/09/25 07:50:26;;;;;;;15.10;9.20;;;;;;;24.18;46.14;101602.27;108364;1251;60493;-67
2023/09/25 07:52:58;;;;;;;16.10;9.40;;;;;;;24.32;46.19;101604.64;108396;1251;72039;-67
2023/09/25 07:55:26;;;;;;;14.70;9.00;;;;;;;24.48;45.63;101608.33;108340;1251;72581;-68
2023/09/25 07:57:54;;;;;;;14.40;8.70;;;;;;;24.57;44.98;101606.69;108317;1251;72948;-68
2023/09/25 08:00:23;;;;;;;15.30;8.70;;;;;;;24.65;44.35;101613.42;108409;1251;60238;-69
2023/09/25 08:02:52;;;;;;;13.20;8.70;;;;;;;24.72;43.79;101611.66;108350;1251;60159;-68
2023/09/25 08:05:19;;;;;;;14.20;8.90;;;;;;;24.78;43.71;101613.02;108310;1252;72974;-68
2023/09/25 08:07:46;;;;;;;17.40;8.30;;;;;;;24.86;43.78;101612.30;108249;1251;72513;-68
2023/09/25 08:10:13;;;;;;;17.10;9.20;;;;;;;24.94;43.90;101606.55;108359;1251;72497;-68
2023/09/25 08:12:41;;;;;;;13.00;7.90;;;;;;;25.05;43.52;101607.14;108391;1251;61277;-69
2023/09/25 08:15:08;;;;;;;16.80;8.90;;;;;;;25.16;43.41;101604.56;108390;1251;59463;-68
2023/09/25 08:17:36;;;;;;;15.10;8.60;;;;;;;25.24;43.24;101601.44;108381;1251;72880;-67
2023/09/25 08:20:23;;;;;;;13.70;7.90;;;;;;;25.28;43.09;101605.04;108410;1251;71421;-68
2023/09/25 08:22:50;;;;;;;16.00;8.30;;;;;;;25.30;43.28;101602.20;108332;1251;72649;-68
2023/09/25 08:25:17;;;;;;;18.40;8.20;;;;;;;25.39;43.62;101604.42;108390;1251;60911;-67
2023/09/25 08:27:44;;;;;;;14.50;8.20;;;;;;;25.51;43.17;101605.98;108721;1251;59980;-68
2023/09/25 08:30:13;;;;;;;14.50;8.40;;;;;;;25.69;42.91;101606.68;108214;1253;74251;-68
2023/09/25 08:32:40;;;;;;;15.20;8.90;;;;;;;25.78;42.45;101606.68;108258;1256;72773;-68
2023/09/25 08:35:07;;;;;;;14.40;8.50;;;;;;;25.81;42.28;101610.62;108226;1254;72653;-68
2023/09/25 08:37:34;;;;;;;11.20;7.90;;;;;;;25.88;42.70;101604.33;108184;1254;60562;-68
2023/09/25 08:40:01;;;;;;;14.40;8.40;;;;;;;25.98;42.61;101604.02;108155;1253;60100;-67
2023/09/25 08:42:28;;;;;;;14.80;8.20;;;;;;;26.10;42.58;101603.96;108603;1253;72941;-68
2023/09/25 08:44:57;;;;;;;15.80;8.00;;;;;;;26.23;42.29;101605.97;108217;1254;72101;-68
2023/09/25 08:47:24;;;;;;;10.80;7.90;;;;;;;26.36;42.25;101606.19;108248;1254;74028;-68
2023/09/25 08:49:52;;;;;;;13.10;8.50;;;;;;;26.49;42.34;101603.12;108206;1254;59641;-68
2023/09/25 08:52:20;;;;;;;17.40;8.00;;;;;;;26.61;42.01;101596.58;108215;1254;59694;-68
2023/09/25 08:54:50;;;;;;;11.90;7.20;;;;;;;26.74;41.24;101596.69;108499;1254;63336;-68
2023/09/25 08:57:18;;;;;;;16.70;7.40;;;;;;;26.86;40.76;101595.75;108350;1254;71128;-68
2023/09/25 08:59:48;;;;;;;13.70;8.00;;;;;;;26.97;40.70;101594.04;108204;1253;72411;-68
2023/09/25 09:02:15;;;;;;;13.10;7.20;;;;;;;27.07;40.68;101594.77;108196;1254;60287;-68
2023/09/25 09:04:42;;;;;;;14.50;6.90;;;;;;;27.16;40.28;101595.30;108097;1257;59637;-69
2023/09/25 09:07:10;;;;;;;11.60;6.20;;;;;;;27.26;40.67;101593.10;108293;1254;65674;-68
2023/09/25 09:09:38;;;;;;;12.60;6.20;;;;;;;27.36;39.73;101594.88;108329;1253;64162;-67
2023/09/25 09:12:07;;;;;;;13.10;5.50;;;;;;;27.49;38.57;101596.36;108375;1253;65096;-67
2023/09/25 09:14:41;;;;;;;12.40;5.20;;;;;;;27.61;37.31;101600.40;108148;1253;59541;-68
2023/09/25 09:17:09;;;;;;;15.90;5.80;;;;;;;27.67;36.02;101602.55;108620;1253;59621;-67
2023/09/25 09:19:57;;;;;;;12.40;5.30;;;;;;;27.71;35.90;101602.02;108319;1253;64464;-67
2023/09/25 09:22:25;;;;;;;15.90;5.50;;;;;;;27.78;36.33;101601.40;108232;1254;65530;-68
2023/09/25 09:24:56;;;;;;;11.10;5.30;;;;;;;27.88;36.51;101599.34;108241;1253;63956;-68
2023/09/25 09:27:24;;;;;;;9.80;5.20;;;;;;;27.99;36.57;101597.20;108781;1253;59378;-68
2023/09/25 09:29:52;;;;;;;11.10;5.60;;;;;;;28.11;36.12;101597.27;108539;1253;60168;-68
2023/09/25 09:32:19;;;;;;;14.00;5.20;;;;;;;28.18;35.74;101595.98;108455;1254;64236;-68
2023/09/25 09:34:46;;;;;;;12.30;5.00;;;;;;;28.20;35.40;101597.38;108040;1253;65317;-68
2023/09/25 09:37:13;;;;;;;13.30;5.00;;;;;;;28.23;35.57;101597.47;108531;1254;63891;-68
2023/09/25 09:39:45;;;;;;;11.10;5.40;;;;;;;28.31;35.28;101592.41;108021;1253;59622;-68
2023/09/25 09:42:14;;;;;;;9.60;4.80;;;;;;;28.40;35.05;101594.00;108218;1254;59187;-69
2023/09/25 09:44:43;;;;;;;13.50;5.10;;;;;;;28.46;34.39;101597.45;108233;1254;63138;-68
2023/09/25 09:47:10;;;;;;;8.70;4.40;;;;;;;28.24;34.12;101598.27;108330;1254;63911;-68
2023/09/25 09:49:39;;;;;;;9.60;4.50;;;;;;;27.96;34.42;101595.63;108249;1254;72663;-67
2023/09/25 09:52:06;;;;;;;10.60;4.10;;;;;;;27.95;34.83;101596.23;108303;1255;60631;-68
2023/09/25 09:54:38;;;;;;;10.20;4.30;;;;;;;27.93;33.69;101590.52;108321;1254;60410;-68
2023/09/25 09:57:05;;;;;;;14.50;4.40;;;;;;;27.95;34.05;101591.45;108158;1256;74164;-68
2023/09/25 09:59:32;;;;;;;12.50;4.10;;;;;;;27.98;33.73;101587.27;108171;1254;65209;-68
2023/09/25 10:01:59;;;;;;;9.60;3.80;;;;;;;28.01;33.83;101584.63;108328;1254;62842;-68
2023/09/25 10:04:26;;;;;;;12.80;4.50;;;;;;;28.06;34.01;101583.73;108152;1254;59026;-68
2023/09/25 10:06:58;;;;;;;11.30;4.10;;;;;;;28.12;34.19;101579.11;108150;1254;59961;-68
2023/09/25 10:09:26;;;;;;;14.20;4.20;;;;;;;28.15;33.77;101579.04;108283;1254;63361;-68
2023/09/25 10:11:58;;;;;;;8.40;4.30;;;;;;;28.17;33.24;101577.05;108182;1254;64080;-68
2023/09/25 10:14:25;;;;;;;;;;;;;;;28.15;32.68;101575.17;108350;1254;72760;-68
2023/09/25 10:17:05;;;;;;;12.20;4.30;;;;;;;28.12;32.90;101572.36;108199;1257;59977;-68
2023/09/25 10:19:41;;;;;;;10.20;4.10;;;;;;;28.13;33.13;101566.95;108225;1254;59640;-68
2023/09/25 10:22:26;;;;;;;10.30;4.00;;;;;;;28.17;33.80;101565.17;108233;1254;64208;-68
2023/09/25 10:25:12;;;;;;;11.00;3.80;;;;;;;28.23;33.54;101565.05;108140;1254;63975;-67
2023/09/25 10:27:43;;;;;;;9.90;3.90;;;;;;;28.21;33.10;101562.57;108149;1254;63857;-68
2023/09/25 10:30:14;;;;;;;16.00;4.30;;;;;;;28.18;33.16;101560.29;108295;1254;59630;-68
2023/09/25 10:32:42;;;;;;;12.30;3.80;;;;;;;28.20;33.33;101557.27;108334;1254;59531;-68
2023/09/25 10:35:37;;;;;;;10.30;3.80;;;;;;;28.34;32.82;101553.08;108114;1254;64129;-68
2023/09/25 10:38:15;;;;;;;11.70;4.10;;;;;;;28.81;32.57;101549.11;108144;1254;65367;-68
2023/09/25 10:41:07;;;;;;;11.00;3.90;;;;;;;29.00;32.48;101552.42;108271;1254;64083;-68
2023/09/25 10:43:35;;;;;;;9.30;4.10;;;;;;;29.10;32.05;101553.66;108237;1254;59764;-67
2023/09/25 10:46:02;;;;;;;8.20;3.60;;;;;;;29.13;31.49;101555.63;108195;1254;59545;-67
2023/09/25 10:48:31;;;;;;;12.30;3.90;;;;;;;29.14;31.14;101554.06;108406;1254;64301;-68
2023/09/25 10:50:58;;;;;;;11.00;3.50;;;;;;;29.16;30.84;101552.06;108148;1254;64146;-68
2023/09/25 10:53:26;;;;;;;12.00;4.00;;;;;;;29.18;31.04;101550.31;108178;1254;72454;-68
2023/09/25 10:55:53;;;;;;;13.20;4.30;;;;;;;29.20;30.60;101545.02;108242;1254;59693;-68
2023/09/25 10:58:21;;;;;;;11.00;4.40;;;;;;;29.24;30.63;101540.06;108154;1254;59557;-68
2023/09/25 11:00:49;;;;;;;10.80;4.10;;;;;;;29.33;30.49;101537.89;108190;1254;63232;-68
2023/09/25 11:03:16;;;;;;;10.70;3.70;;;;;;;29.41;30.61;101539.63;108187;1254;65169;-68
2023/09/25 11:05:44;;;;;;;13.00;4.10;;;;;;;29.49;30.81;101539.55;108273;1254;64035;-69
2023/09/25 11:08:15;;;;;;;9.20;3.70;;;;;;;29.54;31.07;101537.13;108251;1253;60403;-68
2023/09/25 11:10:42;;;;;;;;;;;;;;;29.56;31.13;101530.81;108057;1254;60077;-68
2023/09/25 11:13:10;;;;;;;11.10;3.90;;;;;;;29.61;30.79;101533.20;108246;1254;64425;-68